Time;durP1;ratioP1;P1;durP2;ratioP2;P2;SDS_P1;SDS_P2;PMS_P1;PMS_P2;Temp;Humidity;BMP_temperature;BMP_pressure;BME280_temperature;BME280_humidity;BME280_pressure;Samples;Min_cycle;Max_cycle;Signal;HPM_P1;HPM_P2
2023/05/03 00:00:47;;;;;;;4.30;0.70;;;4.30;99.90;;;;;;5042312;28;20091;-79
2023/05/03 00:03:13;;;;;;;2.03;0.70;;;4.30;99.90;;;;;;5074351;28;20044;-79
2023/05/03 00:05:39;;;;;;;2.33;0.80;;;4.20;99.90;;;;;;5044173;28;20042;-79
2023/05/03 00:08:04;;;;;;;3.13;0.63;;;4.20;99.90;;;;;;5076219;28;20033;-79
2023/05/03 00:10:30;;;;;;;4.10;0.93;;;4.20;99.90;;;;;;5041331;28;20041;-79
2023/05/03 00:12:56;;;;;;;3.67;0.70;;;4.10;99.90;;;;;;5039974;28;20033;-79
2023/05/03 00:15:21;;;;;;;2.58;0.60;;;4.10;99.90;;;;;;5043783;28;20395;-79
2023/05/03 00:17:47;;;;;;;3.38;1.00;;;4.10;99.90;;;;;;5045049;28;20484;-79
2023/05/03 00:20:14;;;;;;;4.25;0.63;;;4.10;99.90;;;;;;5042444;28;20039;-79
2023/05/03 00:22:39;;;;;;;3.00;1.10;;;4.10;99.90;;;;;;5041323;28;20048;-79
2023/05/03 00:25:07;;;;;;;3.38;1.30;;;4.20;99.90;;;;;;5040467;28;20044;-79
2023/05/03 00:27:33;;;;;;;2.45;1.20;;;4.20;99.90;;;;;;5043181;28;20083;-79
2023/05/03 00:29:58;;;;;;;2.45;0.80;;;4.30;99.90;;;;;;5047003;28;20438;-79
2023/05/03 00:32:24;;;;;;;3.45;1.13;;;4.30;99.90;;;;;;5047534;28;20052;-79
2023/05/03 00:34:57;;;;;;;3.03;1.02;;;4.20;99.90;;;;;;5048605;28;20064;-79
2023/05/03 00:37:23;;;;;;;7.30;1.08;;;4.20;99.90;;;;;;5047409;28;20092;-79
2023/05/03 00:39:49;;;;;;;4.00;0.88;;;4.30;99.90;;;;;;5030583;28;20097;-79
2023/05/03 00:42:14;;;;;;;3.42;1.17;;;4.30;99.90;;;;;;5047606;28;20121;-79
2023/05/03 00:44:40;;;;;;;3.28;1.05;;;4.50;99.90;;;;;;5046726;28;20052;-79
2023/05/03 00:47:06;;;;;;;4.80;1.65;;;4.50;99.90;;;;;;5080435;28;20195;-79
2023/05/03 00:49:33;;;;;;;3.75;1.88;;;4.60;99.90;;;;;;5046757;28;20041;-79
2023/05/03 00:51:58;;;;;;;5.50;2.22;;;4.70;99.90;;;;;;5046540;28;20037;-79
2023/05/03 00:54:27;;;;;;;6.00;1.52;;;4.70;99.90;;;;;;5047272;28;20055;-79
2023/05/03 00:56:52;;;;;;;1.80;1.23;;;4.70;99.90;;;;;;5048627;28;20127;-79
2023/05/03 00:59:18;;;;;;;4.07;1.90;;;4.70;99.90;;;;;;5048419;28;20116;-79
2023/05/03 01:01:48;;;;;;;4.10;1.73;;;4.70;99.90;;;;;;5046075;28;20045;-79
2023/05/03 01:04:14;;;;;;;3.75;1.60;;;4.70;99.90;;;;;;5044659;28;20110;-79
2023/05/03 01:06:46;;;;;;;8.15;2.03;;;4.80;99.90;;;;;;5048007;28;20055;-79
2023/05/03 01:09:22;;;;;;;3.60;1.83;;;4.90;99.90;;;;;;5044111;28;20549;-79
2023/05/03 01:11:59;;;;;;;5.38;1.90;;;5.00;99.90;;;;;;5044853;28;20053;-79
2023/05/03 01:14:35;;;;;;;6.32;3.55;;;5.00;99.90;;;;;;5046628;28;20048;-79
2023/05/03 01:17:25;;;;;;;4.82;2.40;;;5.10;99.90;;;;;;5046490;28;20052;-79
2023/05/03 01:19:56;;;;;;;4.25;1.95;;;5.20;99.90;;;;;;5077491;28;20036;-79
2023/05/03 01:22:36;;;;;;;6.05;2.40;;;5.30;99.90;;;;;;5045455;28;20037;-79
2023/05/03 01:25:12;;;;;;;8.77;1.92;;;5.30;99.90;;;;;;5045012;28;20404;-79
2023/05/03 01:27:39;;;;;;;4.32;2.08;;;5.40;99.90;;;;;;5034475;28;20047;-79
2023/05/03 01:30:10;;;;;;;3.85;1.90;;;5.40;99.90;;;;;;5080810;28;20052;-79
2023/05/03 01:32:50;;;;;;;4.63;1.90;;;5.40;99.90;;;;;;5048633;28;20048;-79
2023/05/03 01:35:49;;;;;;;2.67;1.77;;;5.40;99.90;;;;;;5046039;28;20049;-79
2023/05/03 01:38:17;;;;;;;4.97;2.30;;;5.40;99.90;;;;;;5050241;28;20041;-79
2023/05/03 01:40:50;;;;;;;4.10;2.45;;;5.40;99.90;;;;;;5042296;28;20057;-79
2023/05/03 01:43:18;;;;;;;4.68;2.00;;;5.40;99.90;;;;;;5045363;28;20096;-79
2023/05/03 01:45:44;;;;;;;5.38;2.45;;;5.40;99.90;;;;;;5047312;28;20048;-79
2023/05/03 01:48:12;;;;;;;4.72;2.45;;;5.50;99.90;;;;;;5075993;28;20039;-79
2023/05/03 01:50:37;;;;;;;5.28;2.30;;;5.50;99.90;;;;;;5078101;28;20508;-79
2023/05/03 01:53:03;;;;;;;5.47;1.95;;;5.50;99.90;;;;;;5047084;28;20041;-79
2023/05/03 01:55:28;;;;;;;3.58;2.00;;;5.50;99.90;;;;;;5043892;28;20046;-79
2023/05/03 01:57:54;;;;;;;4.03;2.33;;;5.50;99.90;;;;;;5043169;28;20455;-79
2023/05/03 02:00:20;;;;;;;5.10;2.22;;;5.50;99.90;;;;;;5042762;28;20042;-79
2023/05/03 02:02:45;;;;;;;4.78;2.30;;;5.50;99.90;;;;;;5039796;28;20125;-79
2023/05/03 02:05:11;;;;;;;5.97;2.00;;;5.60;99.90;;;;;;5041417;28;20139;-79
2023/05/03 02:07:37;;;;;;;6.38;2.38;;;5.60;99.90;;;;;;5041807;28;20032;-79
2023/05/03 02:10:04;;;;;;;4.50;2.05;;;5.60;99.90;;;;;;5058698;28;20045;-79
2023/05/03 02:12:29;;;;;;;7.10;2.28;;;5.60;99.90;;;;;;5042273;28;20506;-79
2023/05/03 02:14:55;;;;;;;5.70;2.13;;;5.60;99.90;;;;;;5059549;28;20037;-79
2023/05/03 02:17:20;;;;;;;6.50;2.42;;;5.70;99.90;;;;;;5057171;28;20041;-79
2023/05/03 02:19:46;;;;;;;7.10;2.10;;;5.60;99.90;;;;;;5038641;28;20108;-79
2023/05/03 02:22:11;;;;;;;6.43;2.45;;;5.50;99.90;;;;;;5041699;28;20041;-79
2023/05/03 02:24:38;;;;;;;5.35;2.47;;;5.50;99.90;;;;;;5039582;28;20055;-79
2023/05/03 02:27:04;;;;;;;4.72;2.33;;;5.50;99.90;;;;;;5040750;28;20057;-79
2023/05/03 02:29:30;;;;;;;3.70;2.30;;;5.40;99.90;;;;;;5040590;28;20041;-81
2023/05/03 02:31:56;;;;;;;4.15;2.10;;;5.30;99.90;;;;;;5047111;28;20510;-79
2023/05/03 02:34:22;;;;;;;2.42;1.17;;;5.20;99.90;;;;;;5040824;28;20138;-79
2023/05/03 02:36:47;;;;;;;3.83;1.33;;;5.00;99.90;;;;;;5041418;28;20103;-79
2023/05/03 02:39:13;;;;;;;2.75;1.88;;;4.90;99.90;;;;;;5041470;28;20091;-79
2023/05/03 02:41:39;;;;;;;2.83;1.30;;;4.80;99.90;;;;;;5042210;28;20033;-79
2023/05/03 02:44:04;;;;;;;2.22;1.38;;;4.80;99.90;;;;;;5044588;28;20110;-79
2023/05/03 02:46:30;;;;;;;2.67;1.70;;;4.70;99.90;;;;;;5077397;28;20041;-79
2023/05/03 02:48:56;;;;;;;4.85;2.03;;;4.60;99.90;;;;;;5061655;28;20833;-79
2023/05/03 02:51:21;;;;;;;6.30;2.33;;;4.60;99.90;;;;;;5045595;28;20033;-79
2023/05/03 02:53:47;;;;;;;9.43;3.72;;;4.60;99.90;;;;;;5041130;28;20057;-79
2023/05/03 02:56:12;;;;;;;4.00;2.30;;;4.50;99.90;;;;;;5042235;28;20396;-79
2023/05/03 02:58:38;;;;;;;7.60;2.63;;;4.50;99.90;;;;;;5043819;28;20498;-79
2023/05/03 03:01:03;;;;;;;1.98;1.40;;;4.40;99.90;;;;;;5046306;28;20190;-79
2023/05/03 03:03:29;;;;;;;3.97;1.35;;;4.30;99.90;;;;;;5043731;28;20072;-79
2023/05/03 03:05:54;;;;;;;4.85;2.42;;;4.20;99.90;;;;;;5043961;28;20060;-79
2023/05/03 03:08:22;;;;;;;3.42;1.80;;;4.00;99.90;;;;;;5043398;28;20041;-79
2023/05/03 03:10:48;;;;;;;4.57;2.10;;;3.90;99.90;;;;;;5043476;28;20108;-79
2023/05/03 03:13:14;;;;;;;4.80;2.10;;;3.90;99.90;;;;;;5042526;28;20178;-79
2023/05/03 03:15:40;;;;;;;3.47;2.38;;;3.90;99.90;;;;;;5039520;28;20029;-79
2023/05/03 03:18:05;;;;;;;5.00;2.63;;;3.90;99.90;;;;;;5041332;28;20079;-79
2023/05/03 03:20:31;;;;;;;9.65;3.05;;;3.90;99.90;;;;;;5042293;28;20048;-79
2023/05/03 03:22:56;;;;;;;7.93;2.67;;;3.90;99.90;;;;;;5039594;28;20068;-79
2023/05/03 03:25:22;;;;;;;4.70;3.28;;;3.90;99.90;;;;;;5074364;28;20055;-79
2023/05/03 03:27:47;;;;;;;5.55;2.65;;;3.80;99.90;;;;;;5038045;28;20048;-79
2023/05/03 03:30:13;;;;;;;4.35;2.17;;;3.80;99.90;;;;;;5040079;28;20506;-79
2023/05/03 03:32:39;;;;;;;4.75;3.00;;;3.80;99.90;;;;;;5041409;28;20182;-79
2023/05/03 03:35:05;;;;;;;4.30;2.53;;;4.00;99.90;;;;;;5038599;28;20163;-79
2023/05/03 03:37:31;;;;;;;5.63;3.08;;;3.70;99.90;;;;;;5039386;28;20078;-79
2023/05/03 03:39:56;;;;;;;5.53;2.95;;;3.70;99.90;;;;;;5041690;28;20196;-79
2023/05/03 03:42:24;;;;;;;3.40;1.70;;;3.60;99.90;;;;;;5028466;28;20041;-79
2023/05/03 03:44:50;;;;;;;6.88;2.15;;;3.60;99.90;;;;;;5042783;28;20060;-79
2023/05/03 03:47:15;;;;;;;4.57;2.28;;;3.50;99.90;;;;;;5057328;28;20045;-79
2023/05/03 03:49:41;;;;;;;4.30;2.13;;;3.40;99.90;;;;;;5042763;28;20068;-79
2023/05/03 03:52:07;;;;;;;6.28;2.65;;;3.40;99.90;;;;;;5043602;28;20070;-79
2023/05/03 03:54:34;;;;;;;5.85;3.03;;;3.40;99.90;;;;;;5040816;28;20045;-79
2023/05/03 03:57:01;;;;;;;4.05;2.53;;;3.40;99.90;;;;;;5045045;28;20045;-79
2023/05/03 03:59:28;;;;;;;4.28;2.72;;;3.40;99.90;;;;;;5045508;28;20413;-79
2023/05/03 04:01:53;;;;;;;3.50;2.78;;;3.40;99.90;;;;;;5040232;28;20045;-79
2023/05/03 04:04:19;;;;;;;10.30;2.47;;;3.30;99.90;;;;;;5040882;28;20040;-78
2023/05/03 04:06:45;;;;;;;5.85;2.20;;;3.30;99.90;;;;;;5027040;28;20048;-79
2023/05/03 04:09:10;;;;;;;5.40;1.95;;;3.30;99.90;;;;;;5060094;28;20114;-79
2023/05/03 04:11:36;;;;;;;1.98;1.70;;;3.20;99.90;;;;;;5043515;28;20087;-79
2023/05/03 04:14:03;;;;;;;6.47;2.42;;;3.20;99.90;;;;;;5059677;28;20048;-79
2023/05/03 04:16:28;;;;;;;3.30;1.85;;;3.20;99.90;;;;;;5042938;28;20032;-79
2023/05/03 04:18:54;;;;;;;3.80;2.10;;;3.20;99.90;;;;;;5044966;28;20037;-79
2023/05/03 04:21:19;;;;;;;3.10;1.92;;;3.20;99.90;;;;;;5042769;28;20495;-79
2023/05/03 04:23:45;;;;;;;10.25;3.58;;;3.20;99.90;;;;;;5076105;28;20060;-79
2023/05/03 04:26:11;;;;;;;5.25;2.63;;;3.30;99.90;;;;;;5042126;28;20040;-78
2023/05/03 04:28:37;;;;;;;3.78;2.40;;;3.30;99.90;;;;;;5043478;28;20071;-79
2023/05/03 04:31:04;;;;;;;6.07;2.45;;;3.30;99.90;;;;;;5041669;28;20049;-78
2023/05/03 04:33:30;;;;;;;5.78;2.30;;;3.30;99.90;;;;;;5045082;28;20037;-79
2023/05/03 04:35:56;;;;;;;2.90;1.55;;;3.30;99.90;;;;;;5076742;28;20041;-78
2023/05/03 04:38:22;;;;;;;2.97;2.22;;;3.20;99.90;;;;;;5025948;28;20068;-79
2023/05/03 04:40:48;;;;;;;7.57;2.90;;;3.30;99.90;;;;;;5075696;28;20041;-79
2023/05/03 04:43:13;;;;;;;3.53;2.60;;;3.30;99.90;;;;;;5042608;28;20033;-78
2023/05/03 04:45:39;;;;;;;4.97;2.92;;;3.40;99.90;;;;;;5042699;28;20045;-79
2023/05/03 04:48:05;;;;;;;6.07;2.83;;;3.40;99.90;;;;;;5043222;28;20048;-79
2023/05/03 04:50:32;;;;;;;6.05;2.88;;;3.40;99.90;;;;;;5041129;28;20049;-78
2023/05/03 04:52:57;;;;;;;8.15;2.67;;;3.40;99.90;;;;;;5076369;28;20037;-79
2023/05/03 04:55:23;;;;;;;4.07;2.58;;;3.50;99.90;;;;;;5030481;28;20037;-79
2023/05/03 04:57:48;;;;;;;5.85;3.83;;;3.50;99.90;;;;;;5044446;28;20041;-80
2023/05/03 05:00:15;;;;;;;3.35;3.03;;;3.60;99.90;;;;;;5060139;28;20045;-79
2023/05/03 05:02:41;;;;;;;7.75;4.63;;;3.70;99.90;;;;;;5031995;28;20731;-79
2023/05/03 05:05:08;;;;;;;10.07;4.03;;;3.80;99.90;;;;;;5043290;28;20102;-79
2023/05/03 05:07:34;;;;;;;7.20;3.35;;;3.80;99.90;;;;;;5043353;28;20052;-78
2023/05/03 05:09:59;;;;;;;8.38;4.32;;;3.90;99.90;;;;;;5042893;28;20037;-79
2023/05/03 05:12:25;;;;;;;5.82;3.90;;;3.90;99.90;;;;;;5045853;28;20048;-81
2023/05/03 05:14:51;;;;;;;5.80;3.88;;;4.00;99.90;;;;;;5075526;28;20072;-78
2023/05/03 05:17:17;;;;;;;7.20;4.15;;;4.10;99.90;;;;;;5047239;28;20516;-80
2023/05/03 05:19:42;;;;;;;4.32;3.92;;;4.20;99.90;;;;;;5043616;28;20105;-78
2023/05/03 05:22:08;;;;;;;7.60;4.05;;;4.30;99.90;;;;;;5046679;28;20044;-78
2023/05/03 05:24:33;;;;;;;5.53;3.63;;;4.40;99.90;;;;;;5043884;28;20060;-77
2023/05/03 05:27:00;;;;;;;7.72;4.05;;;4.50;99.90;;;;;;5045160;28;20126;-78
2023/05/03 05:29:25;;;;;;;6.25;3.80;;;4.70;99.90;;;;;;5078961;28;20167;-78
2023/05/03 05:31:51;;;;;;;7.82;4.20;;;4.80;99.90;;;;;;5080590;28;20477;-78
2023/05/03 05:34:17;;;;;;;5.32;4.20;;;5.00;99.90;;;;;;5047363;28;20055;-78
2023/05/03 05:36:43;;;;;;;6.13;4.00;;;5.30;99.90;;;;;;5046172;28;20041;-78
2023/05/03 05:39:09;;;;;;;11.65;4.03;;;5.50;99.90;;;;;;5044926;28;20052;-78
2023/05/03 05:41:34;;;;;;;4.22;3.38;;;5.70;99.90;;;;;;5045046;28;20073;-78
2023/05/03 05:44:00;;;;;;;6.22;4.00;;;5.90;99.90;;;;;;5059937;28;20052;-78
2023/05/03 05:46:26;;;;;;;9.00;4.40;;;6.10;99.90;;;;;;5060992;28;20052;-78
2023/05/03 05:48:51;;;;;;;4.50;3.75;;;6.30;99.90;;;;;;5045788;28;20051;-78
2023/05/03 05:51:17;;;;;;;5.82;3.03;;;6.40;99.90;;;;;;5045475;28;20040;-78
2023/05/03 05:53:42;;;;;;;4.18;2.47;;;6.70;99.90;;;;;;5061558;28;20443;-78
2023/05/03 05:56:08;;;;;;;6.30;2.20;;;7.40;99.90;;;;;;5041560;28;20099;-78
2023/05/03 05:58:36;;;;;;;6.88;2.03;;;8.00;99.90;;;;;;5044237;28;20535;-78
2023/05/03 06:01:02;;;;;;;4.32;1.75;;;8.30;99.90;;;;;;5045105;28;20388;-79
2023/05/03 06:03:28;;;;;;;4.65;1.85;;;8.40;99.90;;;;;;5060010;28;20048;-78
2023/05/03 06:05:53;;;;;;;5.05;1.45;;;8.60;99.90;;;;;;5043286;28;20055;-78
2023/05/03 06:08:19;;;;;;;2.63;1.10;;;8.70;99.90;;;;;;5045430;28;20128;-78
2023/05/03 06:10:45;;;;;;;4.82;1.60;;;8.90;99.90;;;;;;5043339;28;20647;-77
2023/05/03 06:13:10;;;;;;;2.65;0.98;;;9.00;99.90;;;;;;5044550;28;20098;-78
2023/05/03 06:15:36;;;;;;;3.58;1.00;;;9.10;99.90;;;;;;5023865;28;20041;-78
2023/05/03 06:18:03;;;;;;;4.72;1.08;;;9.50;99.90;;;;;;5035106;28;20898;-79
2023/05/03 06:20:29;;;;;;;3.70;1.67;;;9.70;99.90;;;;;;5040707;28;20550;-78
2023/05/03 06:22:54;;;;;;;5.20;0.80;;;10.00;99.90;;;;;;5043315;28;20048;-78
2023/05/03 06:25:20;;;;;;;2.95;0.70;;;10.10;99.90;;;;;;5040489;28;20484;-78
2023/05/03 06:27:45;;;;;;;7.30;1.10;;;10.20;99.90;;;;;;5043044;28;20045;-79
2023/05/03 06:30:12;;;;;;;2.97;1.17;;;10.30;99.90;;;;;;5039517;28;20068;-78
2023/05/03 06:32:39;;;;;;;3.03;0.65;;;10.20;99.90;;;;;;5041130;28;20045;-78
2023/05/03 06:35:05;;;;;;;3.80;0.35;;;10.20;99.90;;;;;;5041892;28;20135;-78
2023/05/03 06:37:30;;;;;;;2.40;0.50;;;10.10;99.90;;;;;;5039081;28;20048;-78
2023/05/03 06:39:56;;;;;;;2.22;0.45;;;10.00;99.90;;;;;;5042294;28;20152;-78
2023/05/03 06:42:22;;;;;;;2.28;0.40;;;10.00;99.90;;;;;;5039679;28;20043;-78
2023/05/03 06:44:48;;;;;;;2.95;0.73;;;10.20;99.90;;;;;;5060574;28;20049;-78
2023/05/03 06:47:13;;;;;;;4.85;0.63;;;10.30;99.90;;;;;;5040666;28;20044;-78
2023/05/03 06:49:40;;;;;;;2.35;0.30;;;10.40;99.90;;;;;;5043383;28;20079;-78
2023/05/03 06:52:06;;;;;;;2.42;0.52;;;10.40;99.90;;;;;;5060241;28;20053;-78
2023/05/03 06:54:31;;;;;;;4.35;0.73;;;10.50;99.90;;;;;;5040653;28;20056;-79
2023/05/03 06:56:57;;;;;;;6.10;0.55;;;10.80;99.90;;;;;;5045666;28;20032;-78
2023/05/03 06:59:23;;;;;;;1.83;0.25;;;10.90;99.90;;;;;;5041791;28;20071;-79
2023/05/03 07:01:49;;;;;;;4.45;0.63;;;11.10;99.90;;;;;;5057003;28;20065;-78
2023/05/03 07:04:15;;;;;;;4.05;0.30;;;11.10;99.90;;;;;;5043534;28;20055;-78
2023/05/03 07:06:41;;;;;;;1.38;0.40;;;11.10;99.90;;;;;;5056206;28;20491;-78
2023/05/03 07:09:07;;;;;;;3.67;0.30;;;11.10;99.90;;;;;;5041881;28;20064;-78
2023/05/03 07:11:35;;;;;;;4.80;0.90;;;11.00;99.90;;;;;;5045532;28;20506;-78
2023/05/03 07:14:01;;;;;;;4.95;0.32;;;11.00;99.90;;;;;;5040915;28;20053;-79
2023/05/03 07:16:27;;;;;;;2.20;0.40;;;10.60;99.90;;;;;;5041961;28;20037;-78
2023/05/03 07:18:52;;;;;;;5.18;0.90;;;10.70;99.90;;;;;;5041441;28;20121;-78
2023/05/03 07:21:18;;;;;;;3.63;0.40;;;10.80;99.90;;;;;;5030973;28;20118;-78
2023/05/03 07:23:43;;;;;;;5.90;0.47;;;10.80;99.90;;;;;;5030606;28;20589;-78
2023/05/03 07:26:09;;;;;;;3.58;0.40;;;10.70;99.90;;;;;;5041253;28;20897;-78
2023/05/03 07:28:35;;;;;;;3.95;0.32;;;10.70;99.90;;;;;;5041863;28;20509;-78
2023/05/03 07:31:02;;;;;;;4.90;0.30;;;10.80;99.90;;;;;;5059406;28;20103;-78
2023/05/03 07:33:28;;;;;;;2.10;0.30;;;10.80;99.90;;;;;;5044116;28;20073;-78
2023/05/03 07:35:53;;;;;;;1.35;0.25;;;10.60;99.90;;;;;;5041066;28;20068;-78
2023/05/03 07:38:19;;;;;;;2.13;0.10;;;10.50;99.90;;;;;;5040560;28;20469;-78
2023/05/03 07:40:44;;;;;;;2.55;0.40;;;10.30;99.90;;;;;;5029191;28;20049;-78
2023/05/03 07:43:10;;;;;;;1.70;0.32;;;10.20;99.90;;;;;;5043718;28;20045;-78
2023/05/03 07:45:36;;;;;;;3.72;0.40;;;10.10;99.90;;;;;;5038931;28;20043;-78
2023/05/03 07:48:03;;;;;;;2.50;0.60;;;10.00;99.90;;;;;;5043258;28;20041;-78
2023/05/03 07:50:30;;;;;;;2.28;0.40;;;10.10;99.90;;;;;;5043382;28;20074;-78
2023/05/03 07:52:55;;;;;;;1.88;0.30;;;10.50;99.90;;;;;;5042790;28;20076;-78
2023/05/03 07:55:21;;;;;;;3.25;0.43;;;10.80;99.90;;;;;;5032076;28;20175;-78
2023/05/03 07:57:47;;;;;;;2.80;0.30;;;11.00;99.90;;;;;;5041865;28;20041;-78
2023/05/03 08:00:13;;;;;;;3.50;0.30;;;11.10;99.90;;;;;;5040665;28;20132;-77
2023/05/03 08:02:40;;;;;;;3.25;0.50;;;11.30;99.90;;;;;;5040792;28;20586;-79
2023/05/03 08:05:06;;;;;;;3.65;0.52;;;11.40;99.90;;;;;;5041725;28;20060;-78
2023/05/03 08:07:32;;;;;;;2.15;0.20;;;11.50;99.90;;;;;;5042675;28;20032;-78
2023/05/03 08:09:58;;;;;;;5.28;0.93;;;11.80;99.90;;;;;;5040187;28;20102;-78
2023/05/03 08:12:27;;;;;;;4.05;0.98;;;11.70;99.90;;;;;;5041710;28;20037;-78
2023/05/03 08:14:54;;;;;;;2.92;0.30;;;11.60;99.90;;;;;;5042139;28;20044;-78
2023/05/03 08:17:21;;;;;;;3.17;0.70;;;11.20;99.90;;;;;;5043422;28;20103;-78
2023/05/03 08:19:47;;;;;;;3.90;0.60;;;10.90;99.90;;;;;;5043390;28;20049;-78
2023/05/03 08:22:13;;;;;;;2.83;0.50;;;11.00;99.90;;;;;;5038150;28;20044;-78
2023/05/03 08:24:39;;;;;;;2.15;0.30;;;11.10;99.90;;;;;;5040523;28;20124;-78
2023/05/03 08:27:06;;;;;;;6.45;0.40;;;11.20;99.90;;;;;;5036879;28;20175;-77
2023/05/03 08:29:32;;;;;;;2.25;0.30;;;11.20;99.90;;;;;;5040237;28;20052;-78
2023/05/03 08:31:58;;;;;;;2.13;0.47;;;11.00;99.90;;;;;;5038748;28;20036;-78
2023/05/03 08:34:24;;;;;;;1.52;0.30;;;11.20;99.90;;;;;;5038446;28;20052;-78
2023/05/03 08:36:50;;;;;;;1.42;0.30;;;11.60;99.90;;;;;;5037420;28;20064;-77
2023/05/03 08:39:17;;;;;;;2.65;0.30;;;11.80;99.90;;;;;;5040767;28;20048;-78
2023/05/03 08:41:43;;;;;;;1.73;0.43;;;12.10;99.90;;;;;;5039671;28;20044;-78
2023/05/03 08:44:11;;;;;;;2.40;0.30;;;12.10;99.90;;;;;;5037561;28;20106;-78
2023/05/03 08:46:37;;;;;;;3.83;0.40;;;12.10;99.90;;;;;;5039832;28;20079;-79
2023/05/03 08:49:05;;;;;;;4.28;0.30;;;12.10;99.90;;;;;;5043809;28;20059;-79
2023/05/03 08:51:33;;;;;;;3.08;0.70;;;12.00;99.90;;;;;;5043999;28;20395;-79
2023/05/03 08:53:58;;;;;;;1.77;0.32;;;11.80;99.90;;;;;;5043328;28;20057;-79
2023/05/03 08:56:42;;;;;;;4.95;1.05;;;11.90;99.90;;;;;;5045613;28;20411;-79
2023/05/03 08:59:10;;;;;;;3.03;0.57;;;11.90;99.90;;;;;;5040891;28;20044;-78
2023/05/03 09:01:37;;;;;;;2.17;0.50;;;11.90;99.90;;;;;;5031386;28;20120;-78
2023/05/03 09:04:03;;;;;;;1.23;0.50;;;11.70;99.90;;;;;;5047304;28;20365;-79
2023/05/03 09:06:31;;;;;;;4.95;0.80;;;11.60;99.90;;;;;;5046183;28;20079;-79
2023/05/03 09:08:58;;;;;;;3.92;0.50;;;11.50;99.90;;;;;;5041755;28;20045;-79
2023/05/03 09:11:35;;;;;;;2.08;0.30;;;11.60;99.90;;;;;;5042829;28;20044;-79
2023/05/03 09:14:12;;;;;;;4.32;0.60;;;11.70;99.90;;;;;;5046279;28;20503;-78
2023/05/03 09:16:39;;;;;;;3.55;0.60;;;11.50;99.90;;;;;;5045150;28;21454;-78
2023/05/03 09:19:08;;;;;;;3.17;0.50;;;11.10;99.90;;;;;;5047369;28;20039;-78
2023/05/03 09:21:35;;;;;;;2.20;0.63;;;11.20;99.90;;;;;;5046174;28;20057;-78
2023/05/03 09:24:02;;;;;;;2.50;0.70;;;11.40;99.90;;;;;;5043058;28;20036;-78
2023/05/03 09:26:35;;;;;;;5.28;0.60;;;11.30;99.90;;;;;;5044135;28;20563;-79
2023/05/03 09:29:02;;;;;;;1.63;0.40;;;11.40;99.90;;;;;;5045684;28;20045;-78
2023/05/03 09:31:30;;;;;;;1.38;0.50;;;11.50;99.90;;;;;;5044357;28;20140;-78
2023/05/03 09:33:56;;;;;;;2.45;0.60;;;11.60;99.90;;;;;;5074396;28;20053;-78
2023/05/03 09:36:22;;;;;;;3.35;1.10;;;11.80;99.90;;;;;;5044554;28;20057;-79
2023/05/03 09:38:50;;;;;;;6.53;1.10;;;11.80;99.90;;;;;;5044773;28;20037;-79
2023/05/03 09:41:25;;;;;;;1.63;0.50;;;11.80;99.90;;;;;;5044355;28;20515;-78
2023/05/03 09:43:54;;;;;;;2.45;0.90;;;12.00;99.90;;;;;;5043998;28;20103;-77
2023/05/03 09:46:20;;;;;;;3.83;0.50;;;12.20;99.90;;;;;;5044594;28;20563;-79
2023/05/03 09:48:46;;;;;;;1.95;0.63;;;12.10;99.90;;;;;;5044113;28;20441;-79
2023/05/03 09:51:11;;;;;;;4.70;0.80;;;12.00;99.90;;;;;;5049136;28;20041;-79
2023/05/03 09:53:38;;;;;;;3.00;0.70;;;12.40;99.90;;;;;;5045011;28;20043;-78
2023/05/03 09:56:11;;;;;;;1.98;0.30;;;12.60;99.90;;;;;;5039481;28;20703;-79
2023/05/03 09:58:38;;;;;;;3.03;0.50;;;12.30;99.90;;;;;;5041736;28;20120;-79
2023/05/03 10:01:04;;;;;;;3.22;0.50;;;12.60;99.90;;;;;;5039199;28;20080;-78
2023/05/03 10:03:43;;;;;;;3.22;0.47;;;13.00;99.90;;;;;;5042590;28;20076;-79
2023/05/03 10:06:47;;;;;;;2.20;0.50;;;13.10;99.90;;;;;;5042942;28;20048;-79
2023/05/03 10:09:57;;;;;;;2.15;0.30;;;13.30;99.90;;;;;;5038224;28;20041;-79
2023/05/03 10:12:24;;;;;;;2.40;0.40;;;12.90;99.90;;;;;;4969120;28;20046;-79
2023/05/03 10:14:52;;;;;;;2.47;0.50;;;12.70;99.90;;;;;;5027992;28;20062;-79
2023/05/03 10:17:26;;;;;;;4.00;0.57;;;13.10;99.90;;;;;;5041395;28;20030;-79
2023/05/03 10:20:10;;;;;;;4.88;0.68;;;13.30;99.90;;;;;;5038758;28;20083;-79
2023/05/03 10:23:03;;;;;;;5.40;1.35;;;13.50;99.90;;;;;;5043227;28;20045;-79
2023/05/03 10:25:30;;;;;;;3.92;0.80;;;13.60;99.90;;;;;;5042354;28;20049;-80
2023/05/03 10:28:05;;;;;;;2.05;0.60;;;13.60;99.90;;;;;;5042334;28;20152;-79
2023/05/03 10:30:33;;;;;;;1.25;0.60;;;13.70;99.90;;;;;;5076897;28;20048;-79
2023/05/03 10:33:08;;;;;;;3.33;1.25;;;13.30;99.90;;;;;;5043441;28;20045;-79
2023/05/03 10:35:37;;;;;;;2.83;0.77;;;13.10;99.90;;;;;;5042385;28;20512;-78
2023/05/03 10:38:16;;;;;;;3.47;0.60;;;13.50;99.90;;;;;;5043758;28;20087;-79
2023/05/03 10:40:43;;;;;;;3.08;0.52;;;13.30;99.90;;;;;;5041904;28;20049;-79
2023/05/03 10:43:28;;;;;;;2.42;0.63;;;13.40;99.90;;;;;;5044198;28;20045;-78
2023/05/03 10:46:00;;;;;;;3.42;1.08;;;13.80;99.90;;;;;;5056826;28;20045;-78
2023/05/03 10:48:27;;;;;;;3.03;1.30;;;13.70;99.90;;;;;;5039608;28;20190;-79
2023/05/03 10:50:54;;;;;;;2.40;0.82;;;14.20;99.90;;;;;;5044010;28;20045;-78
2023/05/03 10:53:35;;;;;;;1.65;0.63;;;14.60;99.90;;;;;;5042712;28;20060;-79
2023/05/03 10:56:11;;;;;;;2.13;0.50;;;14.90;99.90;;;;;;5049648;28;20049;-79
2023/05/03 10:58:42;;;;;;;2.55;0.60;;;15.10;99.90;;;;;;5042752;28;20049;-78
2023/05/03 11:01:13;;;;;;;4.68;1.50;;;15.30;99.90;;;;;;5046142;28;20049;-78
2023/05/03 11:03:52;;;;;;;2.72;0.63;;;15.30;99.90;;;;;;5042592;28;20052;-78
2023/05/03 11:06:32;;;;;;;2.25;0.95;;;15.30;99.90;;;;;;5044817;28;20583;-79
2023/05/03 11:08:58;;;;;;;2.58;0.70;;;15.50;99.90;;;;;;5045808;28;20464;-78
2023/05/03 11:11:24;;;;;;;2.70;0.80;;;15.50;99.90;;;;;;5031159;28;20052;-78
2023/05/03 11:13:50;;;;;;;3.17;0.82;;;15.60;99.90;;;;;;5046135;28;20037;-79
2023/05/03 11:16:16;;;;;;;2.53;0.82;;;15.70;99.50;;;;;;5043222;28;20116;-78
2023/05/03 11:18:42;;;;;;;3.58;0.80;;;15.30;98.70;;;;;;5058421;28;20128;-78
2023/05/03 11:21:09;;;;;;;3.33;0.65;;;14.50;99.00;;;;;;5043054;28;20056;-78
2023/05/03 11:23:38;;;;;;;2.20;1.08;;;14.10;99.60;;;;;;5043777;28;20037;-78
2023/05/03 11:26:07;;;;;;;3.30;0.60;;;13.70;99.90;;;;;;5044432;28;20041;-79
2023/05/03 11:28:33;;;;;;;3.42;1.10;;;13.70;99.90;;;;;;5045075;28;20060;-79
2023/05/03 11:31:00;;;;;;;2.05;0.80;;;13.70;99.80;;;;;;5042494;28;20435;-78
2023/05/03 11:33:29;;;;;;;3.67;1.02;;;13.60;99.90;;;;;;5040899;28;20883;-77
2023/05/03 11:35:55;;;;;;;2.10;0.50;;;13.50;99.90;;;;;;5042661;28;20049;-78
2023/05/03 11:38:21;;;;;;;2.15;0.60;;;13.40;99.90;;;;;;5044182;28;20469;-78
2023/05/03 11:40:46;;;;;;;5.88;1.17;;;13.50;99.90;;;;;;5042730;28;20064;-79
2023/05/03 11:43:12;;;;;;;3.90;1.05;;;13.80;99.90;;;;;;5036569;28;20128;-77
2023/05/03 11:45:45;;;;;;;2.47;0.77;;;13.90;99.90;;;;;;5041721;28;20052;-79
2023/05/03 11:48:12;;;;;;;2.53;0.95;;;14.00;99.80;;;;;;5042904;28;20395;-79
2023/05/03 11:50:56;;;;;;;5.55;2.33;;;14.10;99.90;;;;;;5044600;28;20048;-79
2023/05/03 11:53:23;;;;;;;7.07;1.00;;;14.30;99.90;;;;;;5043760;28;20075;-79
2023/05/03 11:55:52;;;;;;;5.50;1.67;;;14.10;99.50;;;;;;5042145;28;20920;-79
2023/05/03 11:58:23;;;;;;;2.53;0.73;;;14.10;99.90;;;;;;5040159;28;20037;-79
2023/05/03 12:00:50;;;;;;;4.53;1.30;;;14.30;99.90;;;;;;5041708;28;20041;-79
2023/05/03 12:03:24;;;;;;;4.07;0.90;;;14.40;99.90;;;;;;5043479;28;20086;-79
2023/05/03 12:05:51;;;;;;;2.85;1.08;;;14.10;99.90;;;;;;5043008;28;20108;-79
2023/05/03 12:08:18;;;;;;;2.92;0.80;;;13.90;99.80;;;;;;5044479;28;20057;-79
2023/05/03 12:10:44;;;;;;;3.78;1.08;;;13.60;99.70;;;;;;5042611;28;20388;-79
2023/05/03 12:13:10;;;;;;;4.18;0.70;;;13.50;99.90;;;;;;5041439;28;20048;-79
2023/05/03 12:15:38;;;;;;;2.28;1.00;;;13.60;99.90;;;;;;5042620;28;20055;-77
2023/05/03 12:18:09;;;;;;;5.68;1.00;;;13.80;99.90;;;;;;5037460;28;20061;-78
2023/05/03 12:20:36;;;;;;;0.88;0.77;;;13.70;99.90;;;;;;5039519;28;20519;-78
2023/05/03 12:23:06;;;;;;;3.90;0.90;;;13.70;99.90;;;;;;5038263;28;20944;-78
2023/05/03 12:25:35;;;;;;;3.22;0.75;;;13.90;99.90;;;;;;5044721;28;20060;-78
2023/05/03 12:28:02;;;;;;;2.35;1.05;;;14.10;99.90;;;;;;5046013;28;20529;-78
2023/05/03 12:30:28;;;;;;;4.13;1.48;;;14.00;99.90;;;;;;5043177;28;20136;-78
2023/05/03 12:32:54;;;;;;;3.85;1.10;;;13.80;99.90;;;;;;5045812;28;20174;-78
2023/05/03 12:35:21;;;;;;;3.63;0.77;;;13.90;99.90;;;;;;5045005;28;20041;-79
2023/05/03 12:37:48;;;;;;;2.17;0.73;;;14.00;99.90;;;;;;5042375;28;20037;-78
2023/05/03 12:40:15;;;;;;;3.10;0.75;;;14.00;99.90;;;;;;5048103;28;20053;-78
2023/05/03 12:42:41;;;;;;;3.35;1.35;;;14.30;99.90;;;;;;5042331;28;20068;-78
2023/05/03 12:45:07;;;;;;;3.75;0.90;;;14.30;99.90;;;;;;5045940;28;20041;-78
2023/05/03 12:47:35;;;;;;;2.72;0.70;;;14.50;99.90;;;;;;5043755;28;20129;-78
2023/05/03 12:50:02;;;;;;;2.95;1.10;;;14.60;99.90;;;;;;5048444;28;20040;-78
2023/05/03 12:52:29;;;;;;;3.97;0.93;;;14.60;99.90;;;;;;5043723;28;20052;-79
2023/05/03 12:54:54;;;;;;;1.60;0.57;;;14.30;99.90;;;;;;5045142;28;20045;-78